Time;durP1;ratioP1;P1;durP2;ratioP2;P2;SDS_P1;SDS_P2;PMS_P1;PMS_P2;Temp;Humidity;BMP_temperature;BMP_pressure;BME280_temperature;BME280_humidity;BME280_pressure;Samples;Min_cycle;Max_cycle;Signal;HPM_P1;HPM_P2
2023/05/10 00:02:12;;;;;;;11.65;8.45;;;12.70;99.90;;;;;;5051014;28;20047;-60
2023/05/10 00:04:38;;;;;;;10.35;7.53;;;12.60;99.90;;;;;;5035434;28;20441;-61
2023/05/10 00:07:04;;;;;;;12.30;7.13;;;12.60;99.90;;;;;;5068838;28;20438;-61
2023/05/10 00:09:29;;;;;;;9.68;6.60;;;12.60;99.90;;;;;;5051955;28;20506;-61
2023/05/10 00:11:58;;;;;;;7.78;5.68;;;12.50;99.90;;;;;;5052005;28;20049;-61
2023/05/10 00:14:23;;;;;;;8.80;6.57;;;12.50;99.90;;;;;;5051404;28;20041;-60
2023/05/10 00:16:49;;;;;;;7.97;6.13;;;12.50;99.90;;;;;;5051074;28;20402;-60
2023/05/10 00:19:15;;;;;;;7.97;6.05;;;12.50;99.90;;;;;;5051681;28;20048;-60
2023/05/10 00:21:41;;;;;;;8.30;6.00;;;12.50;99.90;;;;;;5051092;28;20475;-61
2023/05/10 00:24:06;;;;;;;7.97;6.00;;;12.40;99.90;;;;;;5051920;28;20063;-61
2023/05/10 00:26:32;;;;;;;8.68;6.68;;;12.40;99.90;;;;;;5051238;28;20041;-61
2023/05/10 00:28:58;;;;;;;8.80;6.70;;;12.40;99.90;;;;;;5051951;28;20063;-61
2023/05/10 00:31:24;;;;;;;7.82;5.63;;;12.50;99.90;;;;;;5033751;28;20394;-61
2023/05/10 00:33:49;;;;;;;8.63;5.80;;;12.40;99.90;;;;;;5053128;28;20484;-60
2023/05/10 00:36:16;;;;;;;9.00;6.25;;;12.30;99.90;;;;;;5052567;28;20047;-61
2023/05/10 00:38:41;;;;;;;8.65;6.35;;;12.30;99.90;;;;;;5051701;28;20033;-61
2023/05/10 00:41:07;;;;;;;9.95;7.32;;;12.30;99.90;;;;;;5051470;28;20496;-60
2023/05/10 00:43:33;;;;;;;10.63;8.00;;;12.40;99.90;;;;;;5051891;28;20538;-61
2023/05/10 00:45:59;;;;;;;9.15;6.82;;;12.40;99.90;;;;;;5051662;28;20482;-61
2023/05/10 00:48:25;;;;;;;10.95;8.63;;;12.40;99.90;;;;;;5050869;28;20371;-61
2023/05/10 00:50:50;;;;;;;10.15;8.63;;;12.40;99.90;;;;;;5051247;28;20402;-61
2023/05/10 00:53:16;;;;;;;10.23;8.65;;;12.30;99.90;;;;;;5050278;28;20397;-61
2023/05/10 00:55:43;;;;;;;12.18;9.00;;;12.40;99.90;;;;;;5052256;28;20041;-60
2023/05/10 00:58:09;;;;;;;10.38;8.48;;;12.40;99.90;;;;;;5050177;28;20035;-61
2023/05/10 01:00:37;;;;;;;10.60;9.00;;;12.30;99.90;;;;;;5051039;28;20493;-60
2023/05/10 01:03:02;;;;;;;12.18;9.38;;;12.30;99.90;;;;;;5034484;28;20044;-61
2023/05/10 01:05:28;;;;;;;11.27;8.32;;;12.30;99.90;;;;;;5049388;28;20497;-61
2023/05/10 01:07:54;;;;;;;9.02;7.13;;;12.30;99.90;;;;;;5050918;28;20040;-61
2023/05/10 01:10:20;;;;;;;8.38;6.80;;;12.30;99.90;;;;;;5050466;28;20406;-61
2023/05/10 01:12:47;;;;;;;9.30;7.63;;;12.30;99.90;;;;;;5049875;28;20102;-61
2023/05/10 01:15:14;;;;;;;8.23;5.70;;;12.30;99.90;;;;;;5050678;28;20467;-61
2023/05/10 01:17:44;;;;;;;8.07;5.97;;;12.20;99.90;;;;;;5050663;28;20107;-61
2023/05/10 01:20:11;;;;;;;6.97;4.70;;;12.20;99.90;;;;;;5049713;28;20051;-61
2023/05/10 01:23:08;;;;;;;8.65;6.00;;;12.20;99.90;;;;;;5051997;28;20140;-61
2023/05/10 01:25:55;;;;;;;7.82;5.57;;;12.20;99.90;;;;;;5051753;28;20044;-61
2023/05/10 01:28:51;;;;;;;10.95;7.70;;;12.20;99.90;;;;;;5049778;28;20040;-61
2023/05/10 01:31:30;;;;;;;14.90;9.55;;;12.20;99.90;;;;;;5050548;28;20033;-61
2023/05/10 01:34:04;;;;;;;16.38;11.88;;;12.20;99.90;;;;;;5051345;28;20072;-61
2023/05/10 01:36:48;;;;;;;20.65;12.85;;;12.10;99.90;;;;;;5050215;28;20048;-61
2023/05/10 01:39:44;;;;;;;22.00;15.18;;;12.10;99.90;;;;;;5050670;28;20052;-61
2023/05/10 01:42:14;;;;;;;21.02;12.65;;;12.10;99.90;;;;;;5049569;28;20078;-61
2023/05/10 01:44:42;;;;;;;21.80;14.27;;;12.10;99.90;;;;;;5050570;28;20041;-61
2023/05/10 01:47:23;;;;;;;21.92;12.32;;;12.10;99.90;;;;;;5050699;28;20048;-61
2023/05/10 01:50:00;;;;;;;22.33;12.55;;;12.10;99.90;;;;;;5050973;28;20033;-60
2023/05/10 01:52:37;;;;;;;24.48;13.93;;;12.00;99.90;;;;;;5051329;28;20056;-61
2023/05/10 01:55:07;;;;;;;32.30;16.27;;;12.00;99.90;;;;;;5050135;28;20033;-61
2023/05/10 01:57:36;;;;;;;30.35;15.55;;;12.00;99.90;;;;;;5050005;28;20482;-60
2023/05/10 02:00:04;;;;;;;25.50;15.35;;;12.00;99.90;;;;;;5050604;28;20048;-61
2023/05/10 02:02:35;;;;;;;23.80;14.30;;;12.00;99.90;;;;;;5049329;28;20053;-61
2023/05/10 02:05:02;;;;;;;23.40;12.63;;;12.00;99.90;;;;;;5050439;28;20120;-61
2023/05/10 02:07:29;;;;;;;20.38;12.90;;;12.00;99.90;;;;;;5049784;28;20125;-61
2023/05/10 02:09:55;;;;;;;19.23;11.32;;;12.00;99.90;;;;;;5049913;28;20044;-61
2023/05/10 02:12:22;;;;;;;21.23;12.82;;;12.00;99.90;;;;;;5053005;28;20087;-61
2023/05/10 02:14:48;;;;;;;22.80;10.52;;;12.00;99.90;;;;;;5055462;28;20052;-61
2023/05/10 02:17:14;;;;;;;19.15;10.82;;;12.00;99.90;;;;;;5054132;28;20068;-61
2023/05/10 02:19:42;;;;;;;14.95;9.65;;;12.00;99.90;;;;;;5053879;28;20060;-61
2023/05/10 02:22:09;;;;;;;15.73;9.57;;;12.00;99.90;;;;;;5054076;28;20082;-61
2023/05/10 02:24:37;;;;;;;12.85;9.52;;;12.00;99.90;;;;;;5054408;28;20045;-61
2023/05/10 02:27:04;;;;;;;12.23;8.77;;;12.10;99.90;;;;;;5055263;28;20037;-61
2023/05/10 02:29:32;;;;;;;16.00;8.85;;;12.10;99.90;;;;;;5052788;28;20467;-61
2023/05/10 02:31:59;;;;;;;11.02;8.50;;;12.10;99.90;;;;;;5053936;28;20044;-61
2023/05/10 02:34:29;;;;;;;12.07;8.05;;;12.10;99.90;;;;;;5053387;28;20159;-61
2023/05/10 02:36:56;;;;;;;10.95;7.88;;;12.10;99.90;;;;;;5036337;28;20049;-61
2023/05/10 02:39:23;;;;;;;8.02;6.03;;;12.10;99.90;;;;;;5054471;28;20509;-61
2023/05/10 02:41:50;;;;;;;9.30;6.47;;;12.10;99.90;;;;;;5055086;28;20431;-61
2023/05/10 02:44:19;;;;;;;6.00;4.47;;;12.10;99.90;;;;;;5036360;28;20382;-61
2023/05/10 02:46:46;;;;;;;5.25;3.55;;;12.10;99.90;;;;;;5053230;28;20645;-61
2023/05/10 02:49:11;;;;;;;5.30;3.67;;;12.00;99.90;;;;;;5053115;28;20048;-61
2023/05/10 02:51:44;;;;;;;5.20;3.58;;;12.00;99.90;;;;;;5053702;28;20036;-61
2023/05/10 02:54:20;;;;;;;5.70;3.53;;;12.10;99.90;;;;;;5053429;28;20037;-61
2023/05/10 02:56:53;;;;;;;5.25;3.90;;;12.00;99.90;;;;;;5054692;28;20049;-61
2023/05/10 02:59:19;;;;;;;7.97;4.20;;;12.00;99.90;;;;;;5052135;28;20045;-61
2023/05/10 03:01:45;;;;;;;5.35;3.67;;;12.00;99.90;;;;;;5053244;28;20055;-61
2023/05/10 03:04:11;;;;;;;5.38;4.10;;;12.00;99.90;;;;;;5053303;28;20390;-61
2023/05/10 03:06:36;;;;;;;5.70;4.03;;;12.00;99.90;;;;;;5051967;28;20505;-60
2023/05/10 03:09:03;;;;;;;5.47;3.95;;;12.00;99.90;;;;;;5053288;28;20051;-61
2023/05/10 03:11:42;;;;;;;6.53;4.53;;;12.00;99.90;;;;;;5052467;28;20057;-61
2023/05/10 03:14:25;;;;;;;6.22;4.03;;;12.00;99.90;;;;;;5053187;28;20056;-61
2023/05/10 03:17:00;;;;;;;6.95;4.47;;;12.00;99.90;;;;;;5033326;28;20103;-61
2023/05/10 03:19:45;;;;;;;5.65;4.10;;;11.90;99.90;;;;;;5033074;28;20108;-61
2023/05/10 03:22:18;;;;;;;6.10;3.97;;;12.00;99.90;;;;;;5049202;28;20037;-61
2023/05/10 03:24:45;;;;;;;7.35;4.18;;;11.90;99.90;;;;;;5032000;28;20046;-61
2023/05/10 03:27:12;;;;;;;5.50;4.00;;;11.90;99.90;;;;;;5031945;28;20053;-61
2023/05/10 03:29:39;;;;;;;9.18;5.15;;;11.90;99.90;;;;;;5033916;28;20129;-61
2023/05/10 03:32:04;;;;;;;7.80;5.90;;;11.90;99.90;;;;;;5016479;28;20048;-61
2023/05/10 03:34:31;;;;;;;10.35;5.63;;;11.90;99.90;;;;;;5031605;28;20041;-61
2023/05/10 03:36:57;;;;;;;9.95;7.53;;;11.90;99.90;;;;;;5034108;28;20045;-61
2023/05/10 03:39:22;;;;;;;10.93;6.57;;;11.90;99.90;;;;;;5033586;28;20162;-61
2023/05/10 03:41:48;;;;;;;10.68;7.18;;;11.90;99.90;;;;;;5032374;28;20029;-61
2023/05/10 03:44:14;;;;;;;12.52;7.85;;;11.90;99.90;;;;;;5032702;28;20492;-61
2023/05/10 03:46:40;;;;;;;12.68;8.48;;;11.90;99.90;;;;;;5053696;28;20504;-61
2023/05/10 03:49:05;;;;;;;16.23;9.13;;;11.90;99.90;;;;;;5052975;28;20509;-61
2023/05/10 03:51:31;;;;;;;15.55;9.85;;;11.90;99.90;;;;;;5051796;28;20032;-61
2023/05/10 03:53:57;;;;;;;20.98;12.02;;;11.90;99.90;;;;;;5051850;28;20033;-61
2023/05/10 03:56:22;;;;;;;20.25;11.27;;;11.90;99.90;;;;;;5051212;28;20555;-61
2023/05/10 03:58:48;;;;;;;18.95;12.05;;;11.90;99.90;;;;;;5052398;28;20448;-61
2023/05/10 04:01:14;;;;;;;20.15;11.30;;;11.90;99.90;;;;;;5031671;28;20520;-61
2023/05/10 04:03:40;;;;;;;18.40;12.32;;;11.90;99.90;;;;;;5031868;28;20573;-61
2023/05/10 04:06:08;;;;;;;24.75;13.15;;;11.80;99.90;;;;;;5048582;28;20129;-61
2023/05/10 04:08:33;;;;;;;23.35;13.48;;;11.90;99.90;;;;;;5031249;28;20071;-61
2023/05/10 04:11:10;;;;;;;18.90;12.48;;;11.90;99.90;;;;;;5033480;28;20549;-61
2023/05/10 04:13:36;;;;;;;18.70;12.20;;;11.90;99.90;;;;;;5032970;28;20061;-61
2023/05/10 04:16:07;;;;;;;19.83;13.65;;;11.90;99.90;;;;;;5031161;28;20041;-61
2023/05/10 04:18:33;;;;;;;20.75;13.23;;;11.90;99.90;;;;;;5031521;28;20487;-61
2023/05/10 04:20:59;;;;;;;23.67;13.38;;;11.90;99.90;;;;;;5032470;28;20103;-61
2023/05/10 04:23:25;;;;;;;24.27;14.20;;;11.90;99.90;;;;;;5030502;28;20510;-61
2023/05/10 04:25:50;;;;;;;25.58;15.48;;;11.90;99.90;;;;;;5037158;28;20095;-61
2023/05/10 04:28:16;;;;;;;25.88;13.65;;;11.90;99.90;;;;;;5051530;28;20033;-61
2023/05/10 04:30:42;;;;;;;31.25;15.80;;;11.90;99.90;;;;;;5051816;28;20429;-61
2023/05/10 04:33:07;;;;;;;35.35;17.38;;;11.90;99.90;;;;;;5051528;28;20552;-61
2023/05/10 04:35:33;;;;;;;30.48;17.55;;;11.90;99.90;;;;;;5050891;28;20045;-61
2023/05/10 04:37:59;;;;;;;27.13;16.50;;;11.90;99.90;;;;;;5050772;28;20080;-61
2023/05/10 04:40:25;;;;;;;29.58;17.15;;;11.90;99.90;;;;;;5052376;28;20087;-61
2023/05/10 04:42:51;;;;;;;24.45;15.38;;;11.90;99.90;;;;;;5052661;28;20041;-61
2023/05/10 04:45:17;;;;;;;24.50;15.27;;;11.90;99.90;;;;;;5050671;28;20051;-61
2023/05/10 04:47:43;;;;;;;28.33;17.02;;;12.00;99.90;;;;;;5050919;28;20044;-61
2023/05/10 04:50:09;;;;;;;30.23;17.10;;;12.00;99.90;;;;;;5050688;28;20037;-61
2023/05/10 04:52:34;;;;;;;38.00;21.17;;;12.00;99.90;;;;;;5052478;28;20060;-61
2023/05/10 04:55:00;;;;;;;41.08;22.40;;;11.90;99.90;;;;;;5052429;28;20564;-61
2023/05/10 04:57:26;;;;;;;37.20;21.48;;;11.90;99.90;;;;;;5051081;28;20478;-61
2023/05/10 04:59:52;;;;;;;38.63;22.88;;;11.90;99.90;;;;;;5051374;28;20068;-61
2023/05/10 05:02:18;;;;;;;44.13;24.17;;;11.90;99.90;;;;;;5051910;28;20573;-61
2023/05/10 05:04:44;;;;;;;43.60;25.58;;;11.90;99.90;;;;;;5050370;28;20033;-61
2023/05/10 05:07:09;;;;;;;38.00;22.00;;;11.90;99.90;;;;;;5050836;28;20555;-61
2023/05/10 05:09:35;;;;;;;35.33;21.75;;;11.90;99.90;;;;;;5050962;28;20083;-61
2023/05/10 05:12:01;;;;;;;31.42;19.88;;;11.80;99.90;;;;;;5050917;28;20053;-61
2023/05/10 05:14:26;;;;;;;32.47;21.40;;;11.80;99.90;;;;;;5051536;28;20059;-61
2023/05/10 05:16:52;;;;;;;31.20;19.42;;;11.80;99.90;;;;;;5051293;28;20508;-61
2023/05/10 05:19:18;;;;;;;22.70;15.40;;;11.90;99.90;;;;;;5049811;28;20486;-61
2023/05/10 05:21:44;;;;;;;21.42;15.05;;;11.80;99.90;;;;;;5050644;28;20041;-61
2023/05/10 05:24:11;;;;;;;16.95;12.82;;;11.80;99.90;;;;;;5050423;28;20036;-61
2023/05/10 05:26:36;;;;;;;16.33;11.40;;;11.80;99.90;;;;;;5049792;28;20045;-61
2023/05/10 05:29:02;;;;;;;12.30;9.25;;;11.90;99.90;;;;;;5051032;28;20115;-61
2023/05/10 05:31:28;;;;;;;6.60;4.60;;;11.80;99.90;;;;;;5050639;28;20784;-61
2023/05/10 05:33:55;;;;;;;4.85;2.92;;;11.80;99.90;;;;;;5049799;28;20041;-61
2023/05/10 05:36:20;;;;;;;4.93;3.05;;;11.80;99.90;;;;;;5050243;28;20051;-61
2023/05/10 05:38:46;;;;;;;5.78;3.13;;;11.80;99.90;;;;;;5050768;28;20041;-61
2023/05/10 05:41:12;;;;;;;5.35;3.40;;;11.80;99.90;;;;;;5033232;28;20040;-61
2023/05/10 05:43:38;;;;;;;7.13;3.65;;;11.80;99.90;;;;;;5051451;28;20086;-61
2023/05/10 05:46:04;;;;;;;8.18;4.38;;;11.80;99.90;;;;;;5051707;28;20478;-61
2023/05/10 05:48:30;;;;;;;7.05;4.63;;;11.80;99.90;;;;;;5036880;28;20385;-61
2023/05/10 05:50:56;;;;;;;7.57;4.78;;;11.90;99.90;;;;;;5054689;28;20041;-61
2023/05/10 05:53:23;;;;;;;8.13;5.55;;;11.80;99.90;;;;;;5053205;28;20470;-61
2023/05/10 05:55:57;;;;;;;9.20;6.07;;;11.80;99.90;;;;;;5054346;28;20490;-61
2023/05/10 05:58:24;;;;;;;8.95;6.47;;;11.90;99.90;;;;;;5037325;28;20048;-61
2023/05/10 06:00:52;;;;;;;10.52;6.47;;;11.80;99.90;;;;;;5053677;28;20474;-61
2023/05/10 06:03:19;;;;;;;9.75;7.15;;;11.90;99.90;;;;;;5037741;28;20428;-61
2023/05/10 06:05:44;;;;;;;10.50;8.15;;;11.80;99.90;;;;;;5055713;28;20417;-61
2023/05/10 06:08:10;;;;;;;10.73;8.23;;;11.90;99.90;;;;;;5053331;28;20047;-61
2023/05/10 06:10:36;;;;;;;10.57;8.57;;;11.90;99.90;;;;;;5055271;28;20392;-61
2023/05/10 06:13:02;;;;;;;9.80;7.65;;;11.90;99.90;;;;;;5037438;28;20053;-61
2023/05/10 06:15:28;;;;;;;10.75;7.93;;;11.90;99.90;;;;;;5054107;28;20540;-61
2023/05/10 06:17:55;;;;;;;9.82;7.72;;;11.90;99.90;;;;;;5054430;28;20049;-61
2023/05/10 06:20:21;;;;;;;9.55;7.35;;;11.90;99.90;;;;;;5037034;28;20049;-61
2023/05/10 06:22:46;;;;;;;8.38;5.97;;;11.90;99.90;;;;;;5053240;28;20033;-61
2023/05/10 06:25:14;;;;;;;6.43;5.03;;;12.00;99.90;;;;;;5054026;28;20090;-61
2023/05/10 06:27:40;;;;;;;7.43;6.03;;;11.90;99.90;;;;;;5053557;28;20044;-61
2023/05/10 06:30:08;;;;;;;9.02;5.25;;;12.00;99.90;;;;;;5054663;28;20478;-61
2023/05/10 06:32:33;;;;;;;8.73;5.38;;;12.00;99.90;;;;;;5037004;28;20033;-61
2023/05/10 06:34:59;;;;;;;6.38;4.50;;;12.00;99.90;;;;;;5054195;28;20048;-61
2023/05/10 06:37:25;;;;;;;7.65;5.80;;;12.00;99.90;;;;;;5033686;28;20048;-61
2023/05/10 06:39:50;;;;;;;7.25;4.97;;;12.00;99.90;;;;;;5051064;28;20048;-61
2023/05/10 06:42:16;;;;;;;9.05;5.55;;;12.00;99.90;;;;;;5051767;28;20595;-61
2023/05/10 06:44:43;;;;;;;9.48;6.47;;;12.10;99.90;;;;;;5049735;28;20037;-61
2023/05/10 06:47:09;;;;;;;9.80;5.68;;;12.10;99.90;;;;;;5050394;28;20056;-61
2023/05/10 06:49:35;;;;;;;7.78;5.75;;;12.10;99.90;;;;;;5033448;28;20076;-61
2023/05/10 06:52:01;;;;;;;7.38;4.57;;;12.10;99.90;;;;;;5050123;28;20481;-61
2023/05/10 06:54:26;;;;;;;7.47;4.22;;;12.10;99.90;;;;;;5049193;28;20049;-61
2023/05/10 06:56:53;;;;;;;7.40;4.22;;;12.10;99.90;;;;;;5051043;28;20467;-61
2023/05/10 06:59:19;;;;;;;7.30;4.32;;;12.10;99.90;;;;;;5050731;28;20401;-61
2023/05/10 07:01:45;;;;;;;7.75;4.90;;;12.10;99.90;;;;;;5050362;28;20045;-61
2023/05/10 07:04:11;;;;;;;6.78;3.38;;;12.20;99.90;;;;;;5050908;28;20041;-61
2023/05/10 07:06:37;;;;;;;7.05;4.10;;;12.20;99.90;;;;;;5050846;28;20543;-61
2023/05/10 07:09:03;;;;;;;7.88;4.90;;;12.30;99.90;;;;;;5051479;28;20068;-61
2023/05/10 07:11:29;;;;;;;6.97;3.78;;;12.20;99.90;;;;;;5048900;28;20486;-61
2023/05/10 07:13:55;;;;;;;7.35;3.90;;;12.30;99.90;;;;;;5024972;28;20104;-61
2023/05/10 07:16:21;;;;;;;7.03;3.83;;;12.30;99.90;;;;;;5031124;28;20049;-61
2023/05/10 07:18:47;;;;;;;7.40;4.70;;;12.40;99.90;;;;;;5047807;28;20143;-61
2023/05/10 07:21:12;;;;;;;6.75;4.22;;;12.40;99.90;;;;;;5032924;28;20124;-62
2023/05/10 07:23:38;;;;;;;6.88;4.20;;;12.40;99.90;;;;;;5048866;28;20037;-61
2023/05/10 07:26:04;;;;;;;6.60;4.35;;;12.50;99.90;;;;;;5046914;28;20044;-61
2023/05/10 07:28:29;;;;;;;7.32;4.55;;;12.50;99.90;;;;;;5050838;28;20049;-61
2023/05/10 07:30:55;;;;;;;8.48;4.93;;;12.50;99.90;;;;;;5033375;28;20441;-61
2023/05/10 07:33:21;;;;;;;7.20;4.97;;;12.50;99.90;;;;;;5048697;28;20049;-61
2023/05/10 07:35:47;;;;;;;8.32;5.20;;;12.50;99.90;;;;;;5049190;28;20037;-61
2023/05/10 07:38:12;;;;;;;8.27;5.40;;;12.50;99.90;;;;;;5049882;28;20065;-61
2023/05/10 07:40:39;;;;;;;8.20;5.07;;;12.50;99.90;;;;;;5048729;28;20128;-61
2023/05/10 07:43:05;;;;;;;9.00;5.90;;;12.50;99.90;;;;;;5049820;28;20545;-61
2023/05/10 07:45:30;;;;;;;10.05;6.40;;;12.50;99.90;;;;;;5048728;28;20105;-61
2023/05/10 07:47:56;;;;;;;9.88;5.72;;;12.50;99.90;;;;;;5049244;28;20148;-61
2023/05/10 07:50:22;;;;;;;7.53;4.70;;;12.50;99.90;;;;;;5048195;28;20045;-61
2023/05/10 07:52:49;;;;;;;9.57;5.57;;;12.60;99.90;;;;;;5051144;28;20120;-62
2023/05/10 07:55:15;;;;;;;9.02;5.30;;;12.60;99.90;;;;;;5063072;28;20033;-61
2023/05/10 07:57:42;;;;;;;8.60;5.18;;;12.50;99.90;;;;;;5045077;28;20047;-62
2023/05/10 08:00:08;;;;;;;9.25;4.80;;;12.60;99.90;;;;;;5050950;28;20442;-61
2023/05/10 08:02:35;;;;;;;7.35;4.03;;;12.60;99.90;;;;;;5052731;28;20044;-61
2023/05/10 08:05:01;;;;;;;8.35;4.55;;;12.70;99.90;;;;;;5042324;28;20390;-61
2023/05/10 08:07:26;;;;;;;7.45;4.10;;;12.70;99.90;;;;;;5050856;28;20029;-61
2023/05/10 08:09:52;;;;;;;6.15;3.78;;;12.70;99.90;;;;;;5052468;28;20041;-61
2023/05/10 08:12:18;;;;;;;7.32;4.38;;;12.80;99.90;;;;;;5051717;28;20098;-61
2023/05/10 08:14:44;;;;;;;7.35;3.88;;;12.80;99.90;;;;;;5051258;28;20139;-61
2023/05/10 08:17:11;;;;;;;10.00;4.80;;;12.80;99.90;;;;;;5051527;28;20131;-61
2023/05/10 08:19:36;;;;;;;7.10;4.28;;;12.80;99.90;;;;;;5052614;28;20052;-61
2023/05/10 08:22:02;;;;;;;8.48;4.63;;;12.90;99.90;;;;;;5051176;28;20037;-61
2023/05/10 08:24:28;;;;;;;8.45;4.43;;;12.90;99.90;;;;;;5050833;28;20466;-61
2023/05/10 08:26:54;;;;;;;9.38;4.65;;;13.00;99.90;;;;;;5053091;28;20080;-61
2023/05/10 08:29:20;;;;;;;8.02;4.60;;;13.00;99.90;;;;;;5052079;28;20142;-61
2023/05/10 08:31:46;;;;;;;8.25;5.10;;;13.00;99.90;;;;;;5051875;28;20492;-61
2023/05/10 08:34:12;;;;;;;8.13;4.25;;;13.10;99.90;;;;;;5034555;28;20032;-61
2023/05/10 08:36:38;;;;;;;7.72;4.72;;;13.10;99.90;;;;;;5050650;28;20045;-61
2023/05/10 08:39:03;;;;;;;6.05;3.47;;;13.00;99.90;;;;;;5052947;28;20115;-61
2023/05/10 08:41:33;;;;;;;7.13;3.42;;;13.00;99.90;;;;;;5051841;28;20083;-61
2023/05/10 08:44:02;;;;;;;5.88;3.65;;;13.00;99.90;;;;;;5052023;28;20037;-61
2023/05/10 08:46:30;;;;;;;6.45;3.72;;;13.10;99.90;;;;;;5032748;28;20046;-61
2023/05/10 08:48:57;;;;;;;6.30;3.58;;;13.10;99.90;;;;;;5051002;28;20052;-61
2023/05/10 08:51:26;;;;;;;6.50;2.85;;;13.20;99.90;;;;;;5051186;28;20032;-61
2023/05/10 08:53:52;;;;;;;8.23;4.45;;;13.20;99.90;;;;;;5050393;28;20048;-61
2023/05/10 08:56:19;;;;;;;7.40;4.28;;;13.30;99.90;;;;;;5033838;28;20036;-61
2023/05/10 08:58:45;;;;;;;7.07;3.67;;;13.30;99.90;;;;;;5051407;28;20080;-61
2023/05/10 09:01:13;;;;;;;6.95;4.28;;;13.30;99.90;;;;;;5051196;28;20083;-61
2023/05/10 09:03:39;;;;;;;8.45;4.18;;;13.30;99.90;;;;;;5050824;28;20041;-61
2023/05/10 09:06:06;;;;;;;6.60;3.70;;;13.40;99.90;;;;;;5051508;28;20427;-61
2023/05/10 09:08:33;;;;;;;8.77;4.60;;;13.50;99.90;;;;;;5050378;28;20056;-61
2023/05/10 09:11:01;;;;;;;7.50;4.03;;;13.50;99.90;;;;;;5051558;28;20103;-61
2023/05/10 09:13:29;;;;;;;8.68;5.55;;;13.50;99.90;;;;;;5033646;28;20053;-61
2023/05/10 09:15:55;;;;;;;7.10;4.18;;;13.50;99.90;;;;;;5050917;28;20055;-60
2023/05/10 09:18:20;;;;;;;7.53;4.63;;;13.50;99.90;;;;;;5048758;28;20490;-61
2023/05/10 09:20:46;;;;;;;7.00;4.30;;;13.50;99.90;;;;;;5050941;28;20041;-60
2023/05/10 09:23:12;;;;;;;9.13;4.95;;;13.50;99.90;;;;;;5050454;28;20466;-60
2023/05/10 09:25:38;;;;;;;8.02;4.57;;;13.60;99.90;;;;;;5049040;28;20112;-60
2023/05/10 09:28:08;;;;;;;7.43;4.50;;;13.60;99.90;;;;;;5050782;28;20359;-60
2023/05/10 09:30:35;;;;;;;8.52;4.97;;;13.60;99.90;;;;;;5051624;28;20037;-60
2023/05/10 09:33:01;;;;;;;10.55;5.10;;;13.70;99.90;;;;;;5049697;28;20040;-60
2023/05/10 09:35:28;;;;;;;7.68;4.78;;;13.70;99.90;;;;;;5033309;28;20072;-60
2023/05/10 09:37:57;;;;;;;9.25;5.22;;;13.70;99.90;;;;;;5033927;28;20056;-60
2023/05/10 09:40:24;;;;;;;8.05;5.45;;;13.80;99.90;;;;;;5050489;28;20037;-60
2023/05/10 09:43:05;;;;;;;8.63;5.93;;;13.90;99.90;;;;;;5033997;28;20342;-60
2023/05/10 09:45:33;;;;;;;8.98;5.80;;;13.90;99.90;;;;;;5048221;28;20554;-60
2023/05/10 09:48:01;;;;;;;9.75;5.53;;;13.80;99.90;;;;;;5048191;28;20386;-60
2023/05/10 09:50:28;;;;;;;10.60;5.90;;;13.80;99.90;;;;;;5036384;28;20037;-60
2023/05/10 09:52:58;;;;;;;10.88;6.72;;;13.80;99.90;;;;;;5051189;28;20033;-60
2023/05/10 09:55:25;;;;;;;10.13;6.25;;;13.80;99.90;;;;;;5066722;28;20036;-61
2023/05/10 09:58:01;;;;;;;10.30;6.05;;;13.70;99.90;;;;;;5052144;28;20438;-61
2023/05/10 10:00:28;;;;;;;10.48;6.18;;;13.80;99.90;;;;;;5050093;28;20052;-61
2023/05/10 10:02:59;;;;;;;9.52;5.55;;;13.80;99.90;;;;;;5022247;28;20436;-61
2023/05/10 10:05:35;;;;;;;10.93;5.55;;;13.80;99.90;;;;;;5066291;28;20156;-61
2023/05/10 10:08:04;;;;;;;9.70;6.00;;;13.80;99.90;;;;;;5066056;28;20033;-61
2023/05/10 10:10:31;;;;;;;11.23;6.25;;;13.80;99.90;;;;;;5066416;28;20123;-60
2023/05/10 10:12:57;;;;;;;10.82;6.78;;;13.90;99.90;;;;;;5065249;28;20532;-60
2023/05/10 10:15:24;;;;;;;11.20;7.63;;;13.90;99.90;;;;;;5049001;28;20081;-61
2023/05/10 10:17:51;;;;;;;11.25;8.10;;;13.90;99.90;;;;;;5050365;28;20510;-61
2023/05/10 10:20:20;;;;;;;13.27;7.85;;;13.90;99.90;;;;;;5051244;28;20528;-61
2023/05/10 10:22:47;;;;;;;11.48;7.15;;;14.00;99.90;;;;;;5050480;28;20036;-60
2023/05/10 10:25:15;;;;;;;10.85;7.00;;;14.00;99.90;;;;;;5066776;28;20037;-61
2023/05/10 10:27:53;;;;;;;11.55;6.70;;;13.90;99.90;;;;;;5050466;28;20401;-60
2023/05/10 10:30:45;;;;;;;11.30;6.63;;;13.80;99.90;;;;;;5037499;28;20524;-61
2023/05/10 10:33:14;;;;;;;10.02;7.20;;;13.90;99.90;;;;;;5036429;28;20458;-60
2023/05/10 10:35:40;;;;;;;11.43;6.72;;;13.90;99.90;;;;;;5052896;28;20045;-60
2023/05/10 10:38:09;;;;;;;13.20;6.65;;;13.90;99.90;;;;;;5070649;28;20088;-60
2023/05/10 10:40:35;;;;;;;11.85;6.65;;;14.00;99.90;;;;;;5053105;28;20041;-61
2023/05/10 10:43:26;;;;;;;11.18;6.18;;;14.00;99.90;;;;;;5054370;28;20037;-60
2023/05/10 10:46:13;;;;;;;8.10;4.80;;;14.20;99.90;;;;;;5053576;28;20068;-60
2023/05/10 10:48:51;;;;;;;8.27;4.85;;;14.30;99.90;;;;;;5070400;28;20043;-61
2023/05/10 10:51:16;;;;;;;9.43;5.78;;;14.30;99.90;;;;;;5042276;28;20068;-60
2023/05/10 10:53:43;;;;;;;8.82;5.20;;;14.30;99.90;;;;;;5051490;28;20040;-60
2023/05/10 10:56:13;;;;;;;9.75;5.47;;;14.30;99.90;;;;;;5053673;28;20033;-61
2023/05/10 10:58:39;;;;;;;8.23;5.50;;;14.40;99.90;;;;;;5070149;28;20047;-59
2023/05/10 11:01:19;;;;;;;6.90;4.75;;;14.40;99.90;;;;;;5070437;28;20390;-59
2023/05/10 11:04:02;;;;;;;7.63;4.72;;;14.50;99.90;;;;;;5034657;28;20033;-60
2023/05/10 11:06:33;;;;;;;7.85;4.97;;;14.60;99.90;;;;;;5041920;28;20507;-60
2023/05/10 11:09:06;;;;;;;8.35;5.63;;;14.60;99.90;;;;;;5051961;28;20059;-60
2023/05/10 11:11:32;;;;;;;9.63;5.38;;;14.60;99.90;;;;;;5043098;28;20124;-60
2023/05/10 11:14:04;;;;;;;11.13;6.88;;;14.70;99.90;;;;;;5050537;28;20151;-60
2023/05/10 11:16:44;;;;;;;10.95;6.80;;;14.80;99.90;;;;;;5050089;28;20072;-60
2023/05/10 11:19:12;;;;;;;9.75;6.70;;;14.90;99.90;;;;;;5066103;28;20178;-60
2023/05/10 11:22:11;;;;;;;8.75;6.05;;;14.90;99.90;;;;;;5048342;28;20033;-60
2023/05/10 11:24:37;;;;;;;10.23;6.75;;;15.00;99.90;;;;;;5029800;28;20098;-60
2023/05/10 11:27:02;;;;;;;10.27;6.40;;;15.00;99.90;;;;;;5067375;28;20124;-60
2023/05/10 11:29:28;;;;;;;11.32;6.00;;;15.10;99.90;;;;;;5050456;28;20041;-60
2023/05/10 11:31:57;;;;;;;10.05;6.43;;;15.10;99.90;;;;;;5049594;28;20045;-60
2023/05/10 11:34:33;;;;;;;8.77;6.18;;;15.20;99.90;;;;;;5066561;28;20490;-60
2023/05/10 11:36:59;;;;;;;9.32;6.90;;;15.20;99.90;;;;;;5050287;28;20069;-60
2023/05/10 11:39:33;;;;;;;10.35;7.05;;;15.30;99.90;;;;;;5031815;28;20059;-60
2023/05/10 11:42:00;;;;;;;8.73;5.63;;;15.50;99.90;;;;;;5049304;28;20084;-61
2023/05/10 11:44:32;;;;;;;8.65;6.30;;;15.50;99.90;;;;;;5048299;28;20057;-60
2023/05/10 11:47:00;;;;;;;8.48;6.03;;;15.40;99.90;;;;;;5049199;28;20052;-60
2023/05/10 11:49:26;;;;;;;10.98;6.90;;;15.50;99.90;;;;;;5032746;28;20044;-60
2023/05/10 11:51:51;;;;;;;9.30;6.95;;;15.40;99.90;;;;;;5051327;28;20045;-60
2023/05/10 11:54:17;;;;;;;11.00;7.03;;;15.40;99.90;;;;;;5049923;28;20493;-60
2023/05/10 11:56:43;;;;;;;9.77;6.20;;;15.40;99.90;;;;;;5050506;28;20052;-61
2023/05/10 11:59:08;;;;;;;9.82;6.47;;;15.40;99.90;;;;;;5052762;28;20041;-62
2023/05/10 12:01:35;;;;;;;9.25;6.72;;;15.30;99.90;;;;;;5035679;28;20033;-62
2023/05/10 12:04:01;;;;;;;8.82;6.30;;;15.20;99.90;;;;;;5053484;28;20083;-62
2023/05/10 12:06:29;;;;;;;9.90;7.22;;;15.20;99.90;;;;;;5050721;28;20083;-62
2023/05/10 12:08:55;;;;;;;10.45;6.93;;;15.20;99.90;;;;;;5052106;28;20525;-62
2023/05/10 12:11:24;;;;;;;11.70;7.70;;;15.20;99.90;;;;;;5068077;28;20041;-62
2023/05/10 12:13:50;;;;;;;12.40;8.35;;;15.20;99.90;;;;;;5034119;28;20033;-61
2023/05/10 12:16:19;;;;;;;10.65;7.85;;;15.20;99.90;;;;;;5049976;28;20048;-62
2023/05/10 12:18:47;;;;;;;12.77;8.60;;;15.20;99.90;;;;;;5048447;28;20052;-61
2023/05/10 12:21:15;;;;;;;11.43;8.20;;;15.20;99.90;;;;;;5051090;28;20087;-61
2023/05/10 12:23:41;;;;;;;11.02;7.80;;;15.30;99.90;;;;;;5052663;28;20611;-61
2023/05/10 12:26:09;;;;;;;11.30;8.30;;;15.40;99.90;;;;;;5035101;28;20040;-61
2023/05/10 12:28:35;;;;;;;10.68;7.28;;;15.50;99.90;;;;;;5033888;28;20473;-61
2023/05/10 12:31:02;;;;;;;12.27;7.43;;;15.50;99.90;;;;;;5051829;28;20036;-61
2023/05/10 12:33:38;;;;;;;12.43;7.43;;;15.40;99.90;;;;;;5051204;28;20051;-61
2023/05/10 12:36:06;;;;;;;9.90;6.95;;;15.50;99.90;;;;;;5050936;28;20037;-60
2023/05/10 12:38:42;;;;;;;11.52;7.63;;;15.50;99.90;;;;;;5034338;28;20049;-61
2023/05/10 12:41:10;;;;;;;11.88;7.75;;;15.40;99.90;;;;;;5051580;28;20106;-61
2023/05/10 12:43:36;;;;;;;12.32;8.55;;;15.40;99.90;;;;;;5051831;28;20039;-60
2023/05/10 12:46:16;;;;;;;12.20;7.70;;;15.40;99.90;;;;;;5052597;28;20559;-60